Time;durP1;ratioP1;P1;durP2;ratioP2;P2;SDS_P1;SDS_P2;PMS_P1;PMS_P2;Temp;Humidity;BMP_temperature;BMP_pressure;BME280_temperature;BME280_humidity;BME280_pressure;Samples;Min_cycle;Max_cycle;Signal;HPM_P1;HPM_P2
2022/07/11 00:02:08;;;;;;;6.18;2.45;;;18.70;99.90;;;;;;5091232;28;20566;-83
2022/07/11 00:04:35;;;;;;;6.00;2.50;;;18.70;99.90;;;;;;5091101;28;20340;-83
2022/07/11 00:07:02;;;;;;;4.43;2.10;;;18.70;99.90;;;;;;5091004;28;20709;-83
2022/07/11 00:09:28;;;;;;;7.57;2.83;;;18.70;99.90;;;;;;5090639;28;20028;-83
2022/07/11 00:11:55;;;;;;;6.55;2.88;;;18.70;99.90;;;;;;5089810;28;20036;-82
2022/07/11 00:14:21;;;;;;;6.78;2.65;;;18.70;99.90;;;;;;5090874;28;20028;-82
2022/07/11 00:16:48;;;;;;;5.43;2.60;;;18.70;99.90;;;;;;5090735;28;20032;-83
2022/07/11 00:19:14;;;;;;;7.68;2.95;;;18.60;99.90;;;;;;5089527;28;20028;-83
2022/07/11 00:21:40;;;;;;;6.47;3.10;;;18.60;99.90;;;;;;5090720;28;20055;-83
2022/07/11 00:24:07;;;;;;;8.13;3.15;;;18.60;99.90;;;;;;5091301;28;20114;-82
2022/07/11 00:26:33;;;;;;;9.70;3.30;;;18.60;99.90;;;;;;5090734;28;20070;-82
2022/07/11 00:28:59;;;;;;;7.22;3.08;;;18.60;99.90;;;;;;5089271;28;20047;-82
2022/07/11 00:31:25;;;;;;;9.45;3.33;;;18.50;99.90;;;;;;5090747;28;20024;-83
2022/07/11 00:33:51;;;;;;;9.13;3.00;;;18.50;99.90;;;;;;5090764;28;20027;-83
2022/07/11 00:36:16;;;;;;;6.57;2.72;;;18.50;99.90;;;;;;5090421;28;20495;-83
2022/07/11 00:38:42;;;;;;;7.38;2.67;;;18.50;99.90;;;;;;5090469;28;20384;-83
2022/07/11 00:41:08;;;;;;;12.85;2.90;;;18.50;99.90;;;;;;5090685;28;20035;-82
2022/07/11 00:43:36;;;;;;;7.13;2.88;;;18.50;99.90;;;;;;5090608;28;20028;-83
2022/07/11 00:46:06;;;;;;;7.10;2.97;;;18.50;99.90;;;;;;5090444;28;20063;-82
2022/07/11 00:48:33;;;;;;;8.02;3.03;;;18.40;99.90;;;;;;5090488;28;20020;-83
2022/07/11 00:51:01;;;;;;;14.43;3.45;;;18.40;99.90;;;;;;5090965;28;20023;-82
2022/07/11 00:53:27;;;;;;;6.95;2.88;;;18.40;99.90;;;;;;5090496;28;20078;-82
2022/07/11 00:55:53;;;;;;;6.85;2.80;;;18.40;99.90;;;;;;5090422;28;20434;-82
2022/07/11 00:58:19;;;;;;;6.82;3.22;;;18.40;99.90;;;;;;5090522;28;20028;-82
2022/07/11 01:00:46;;;;;;;6.45;2.80;;;18.40;99.90;;;;;;5090186;28;20124;-82
2022/07/11 01:03:12;;;;;;;7.28;2.90;;;18.40;99.90;;;;;;5090518;28;20035;-82
2022/07/11 01:05:37;;;;;;;9.30;2.70;;;18.40;99.90;;;;;;5089916;28;20028;-82
2022/07/11 01:08:04;;;;;;;7.57;2.72;;;18.40;99.90;;;;;;5091373;28;20020;-82
2022/07/11 01:10:32;;;;;;;7.72;2.67;;;18.40;99.90;;;;;;5092810;28;20028;-82
2022/07/11 01:12:58;;;;;;;6.80;2.70;;;18.40;99.90;;;;;;5076027;28;20087;-82
2022/07/11 01:15:24;;;;;;;8.48;2.67;;;18.40;99.90;;;;;;5094184;28;20032;-82
2022/07/11 01:17:53;;;;;;;6.85;2.55;;;18.30;99.90;;;;;;5093973;28;20053;-83
2022/07/11 01:20:25;;;;;;;6.28;2.78;;;18.30;99.90;;;;;;5093778;28;20043;-83
2022/07/11 01:22:58;;;;;;;6.50;2.70;;;18.30;99.90;;;;;;5092765;28;20385;-83
2022/07/11 01:25:30;;;;;;;7.70;2.67;;;18.30;99.90;;;;;;5092923;28;20536;-82
2022/07/11 01:28:04;;;;;;;10.35;3.05;;;18.30;99.90;;;;;;5093892;28;20024;-83
2022/07/11 01:30:31;;;;;;;5.47;2.65;;;18.30;99.90;;;;;;5093755;28;20490;-83
2022/07/11 01:32:57;;;;;;;8.57;2.63;;;18.30;99.90;;;;;;5093833;28;20024;-82
2022/07/11 01:35:24;;;;;;;5.68;2.35;;;18.30;99.90;;;;;;5092590;28;20369;-83
2022/07/11 01:37:50;;;;;;;5.45;1.95;;;18.30;99.90;;;;;;5093774;28;20416;-82
2022/07/11 01:40:16;;;;;;;4.88;1.75;;;18.30;99.90;;;;;;5093828;28;20024;-83
2022/07/11 01:42:42;;;;;;;8.32;2.72;;;18.30;99.90;;;;;;5092409;28;20081;-83
2022/07/11 01:45:12;;;;;;;6.63;2.55;;;18.30;99.90;;;;;;5093572;28;20140;-83
2022/07/11 01:47:39;;;;;;;6.25;2.58;;;18.30;99.90;;;;;;5093510;28;20051;-82
2022/07/11 01:50:06;;;;;;;7.20;3.63;;;18.30;99.90;;;;;;5093526;28;20118;-82
2022/07/11 01:52:32;;;;;;;8.32;3.20;;;18.30;99.90;;;;;;5093675;28;20070;-82
2022/07/11 01:54:57;;;;;;;7.65;2.35;;;18.30;99.90;;;;;;5093499;28;20361;-83
2022/07/11 01:57:23;;;;;;;6.75;2.22;;;18.20;99.90;;;;;;5093301;28;20035;-82
2022/07/11 01:59:49;;;;;;;7.40;2.25;;;18.30;99.90;;;;;;5093174;28;20031;-82
2022/07/11 02:02:15;;;;;;;9.05;2.42;;;18.30;99.90;;;;;;5093434;28;20039;-82
2022/07/11 02:04:41;;;;;;;5.25;2.10;;;18.20;99.90;;;;;;5093324;28;20028;-83
2022/07/11 02:07:07;;;;;;;6.35;2.50;;;18.30;99.90;;;;;;5093004;28;20526;-82
2022/07/11 02:09:33;;;;;;;5.25;2.33;;;18.20;99.90;;;;;;5093119;28;20374;-82
2022/07/11 02:11:59;;;;;;;7.90;2.88;;;18.30;99.90;;;;;;5093164;28;20028;-82
2022/07/11 02:14:24;;;;;;;11.02;3.10;;;18.30;99.90;;;;;;5093093;28;20109;-82
2022/07/11 02:16:50;;;;;;;7.75;2.72;;;18.30;99.90;;;;;;5092947;28;20042;-82
2022/07/11 02:19:16;;;;;;;9.35;2.85;;;18.30;99.90;;;;;;5092694;28;20036;-82
2022/07/11 02:21:42;;;;;;;10.80;3.10;;;18.30;99.90;;;;;;5093165;28;20050;-82
2022/07/11 02:24:08;;;;;;;8.63;3.25;;;18.30;99.90;;;;;;5092963;28;20054;-82
2022/07/11 02:26:34;;;;;;;9.07;2.80;;;18.30;99.90;;;;;;5092587;28;20038;-82
2022/07/11 02:29:00;;;;;;;8.38;2.50;;;18.30;99.90;;;;;;5092679;28;20032;-82
2022/07/11 02:31:26;;;;;;;6.00;2.35;;;18.30;99.90;;;;;;5091622;28;20031;-82
2022/07/11 02:33:52;;;;;;;6.10;2.55;;;18.20;99.90;;;;;;5092775;28;20082;-82
2022/07/11 02:36:18;;;;;;;6.40;2.28;;;18.20;99.90;;;;;;5092587;28;20028;-82
2022/07/11 02:38:43;;;;;;;8.63;2.13;;;18.20;99.90;;;;;;5092489;28;20469;-83
2022/07/11 02:41:09;;;;;;;5.55;2.15;;;18.20;99.90;;;;;;5092628;28;20036;-82
2022/07/11 02:43:35;;;;;;;6.60;2.05;;;18.30;99.90;;;;;;5092632;28;20032;-82
2022/07/11 02:46:01;;;;;;;4.90;2.10;;;18.20;99.90;;;;;;5090998;28;20313;-82
2022/07/11 02:48:27;;;;;;;5.70;2.00;;;18.20;99.90;;;;;;5092772;28;20119;-82
2022/07/11 02:50:53;;;;;;;6.65;2.05;;;18.20;99.90;;;;;;5092342;28;20028;-82
2022/07/11 02:53:19;;;;;;;5.40;1.70;;;18.20;99.90;;;;;;5091111;28;20028;-82
2022/07/11 02:55:45;;;;;;;5.47;1.70;;;18.10;99.90;;;;;;5092535;28;20028;-82
2022/07/11 02:58:11;;;;;;;7.25;2.35;;;18.10;99.90;;;;;;5090964;28;20040;-82
2022/07/11 03:00:37;;;;;;;5.78;1.52;;;18.10;99.90;;;;;;5091976;28;20035;-82
2022/07/11 03:03:03;;;;;;;6.15;1.42;;;18.10;99.90;;;;;;5092174;28;20028;-82
2022/07/11 03:05:29;;;;;;;3.28;1.27;;;18.10;99.90;;;;;;5073827;28;20138;-83
2022/07/11 03:07:55;;;;;;;2.30;1.10;;;18.20;99.90;;;;;;5092042;28;20089;-83
2022/07/11 03:10:23;;;;;;;4.85;1.58;;;18.10;99.90;;;;;;5092261;28;20024;-83
2022/07/11 03:12:49;;;;;;;2.85;1.40;;;18.10;99.90;;;;;;5092081;28;20092;-83
2022/07/11 03:15:15;;;;;;;2.45;1.30;;;18.10;99.90;;;;;;5091904;28;20040;-83
2022/07/11 03:17:40;;;;;;;3.17;1.60;;;18.10;99.90;;;;;;5091805;28;20041;-83
2022/07/11 03:20:07;;;;;;;3.17;1.20;;;18.10;99.90;;;;;;5091661;28;20035;-82
2022/07/11 03:22:33;;;;;;;3.25;1.40;;;18.10;99.90;;;;;;5091995;28;20052;-83
2022/07/11 03:25:00;;;;;;;2.92;1.20;;;18.10;99.90;;;;;;5091802;28;20503;-83
2022/07/11 03:27:26;;;;;;;3.17;1.10;;;18.10;99.90;;;;;;5092038;28;20022;-82
2022/07/11 03:29:52;;;;;;;3.60;1.83;;;18.10;99.90;;;;;;5091723;28;20024;-83
2022/07/11 03:32:20;;;;;;;3.65;1.40;;;18.10;99.90;;;;;;5091303;28;20396;-82
2022/07/11 03:35:40;;;;;;;1.65;1.00;;;18.10;99.90;;;;;;5073402;28;20093;-82
2022/07/11 03:37:32;;;;;;;2.67;1.25;;;18.10;99.90;;;;;;5091394;28;20070;-82
2022/07/11 03:39:58;;;;;;;2.90;1.20;;;18.10;99.90;;;;;;5091188;28;20069;-82
2022/07/11 03:42:25;;;;;;;2.25;1.00;;;18.00;99.90;;;;;;5091757;28;20033;-82
2022/07/11 03:44:51;;;;;;;2.22;0.90;;;18.10;99.90;;;;;;5091383;28;20156;-82
2022/07/11 03:47:17;;;;;;;1.92;0.80;;;18.00;99.90;;;;;;5090128;28;20411;-82
2022/07/11 03:49:43;;;;;;;1.67;0.80;;;18.00;99.90;;;;;;5091291;28;20063;-82
2022/07/11 03:52:09;;;;;;;1.75;0.82;;;18.00;99.90;;;;;;5090194;28;20059;-83
2022/07/11 03:54:34;;;;;;;3.08;1.00;;;18.00;99.90;;;;;;5091151;28;20035;-83
2022/07/11 03:57:00;;;;;;;3.50;1.02;;;18.00;99.90;;;;;;5089949;28;20392;-82
2022/07/11 03:59:26;;;;;;;2.28;0.90;;;18.00;99.90;;;;;;5091096;28;20109;-82
2022/07/11 04:01:51;;;;;;;1.27;0.80;;;18.00;99.90;;;;;;5091275;28;20106;-83
2022/07/11 04:04:17;;;;;;;1.98;0.90;;;18.00;99.90;;;;;;5091155;28;20511;-82
2022/07/11 04:06:43;;;;;;;2.03;1.00;;;18.00;99.90;;;;;;5091202;28;20111;-83
2022/07/11 04:09:10;;;;;;;2.53;1.10;;;18.00;99.90;;;;;;5090714;28;20035;-82
2022/07/11 04:11:36;;;;;;;2.83;1.20;;;18.00;99.90;;;;;;5091167;28;20035;-83
2022/07/11 04:14:02;;;;;;;2.58;1.20;;;18.00;99.90;;;;;;5091001;28;20028;-82
2022/07/11 04:16:28;;;;;;;1.77;1.10;;;18.00;99.90;;;;;;5090729;28;20047;-82
2022/07/11 04:18:53;;;;;;;2.08;1.30;;;18.00;99.90;;;;;;5090873;28;20035;-83
2022/07/11 04:21:19;;;;;;;1.70;1.00;;;18.00;99.90;;;;;;5090940;28;20028;-83
2022/07/11 04:23:45;;;;;;;2.10;0.90;;;18.00;99.90;;;;;;5090787;28;20568;-83
2022/07/11 04:26:11;;;;;;;2.42;0.80;;;18.00;99.90;;;;;;5090598;28;20434;-82
2022/07/11 04:28:36;;;;;;;2.38;1.15;;;18.00;99.90;;;;;;5090570;28;20028;-83
2022/07/11 04:31:02;;;;;;;3.97;1.40;;;18.00;99.90;;;;;;5090842;28;20024;-82
2022/07/11 04:33:28;;;;;;;0.70;0.50;;;18.00;99.90;;;;;;5091092;28;20449;-82
2022/07/11 04:35:54;;;;;;;0.70;0.50;;;18.10;99.90;;;;;;5090659;28;20032;-82
2022/07/11 04:38:21;;;;;;;1.15;0.55;;;18.10;99.90;;;;;;5090669;28;20067;-82
2022/07/11 04:40:48;;;;;;;1.48;0.80;;;18.10;99.90;;;;;;5090842;28;20028;-82
2022/07/11 04:43:14;;;;;;;1.08;0.50;;;18.10;99.90;;;;;;5092011;28;20468;-82
2022/07/11 04:45:40;;;;;;;0.60;0.57;;;18.10;99.90;;;;;;5094605;28;20032;-83
2022/07/11 04:48:06;;;;;;;0.88;0.60;;;18.10;99.90;;;;;;5094932;28;20035;-82
2022/07/11 04:50:32;;;;;;;1.25;0.70;;;18.10;99.90;;;;;;5094712;28;20219;-82
2022/07/11 04:52:57;;;;;;;1.50;0.50;;;18.10;99.90;;;;;;5094808;28;20089;-82
2022/07/11 04:55:23;;;;;;;0.98;0.50;;;18.10;99.90;;;;;;5094945;28;20127;-83
2022/07/11 04:57:49;;;;;;;1.00;0.52;;;18.10;99.90;;;;;;5094867;28;20031;-82
2022/07/11 05:00:15;;;;;;;0.73;0.40;;;18.00;99.90;;;;;;5094346;28;20056;-83
2022/07/11 05:02:41;;;;;;;1.17;0.50;;;18.00;99.90;;;;;;5093462;28;20036;-83
2022/07/11 05:05:07;;;;;;;1.52;0.68;;;18.10;99.90;;;;;;5094526;28;20028;-83
2022/07/11 05:07:33;;;;;;;0.80;0.57;;;18.10;99.90;;;;;;5094318;28;20074;-83
2022/07/11 05:09:58;;;;;;;0.70;0.57;;;18.00;99.90;;;;;;5094366;28;20070;-83
2022/07/11 05:12:24;;;;;;;1.17;0.70;;;18.00;99.90;;;;;;5094477;28;20028;-83
2022/07/11 05:14:50;;;;;;;1.13;0.50;;;18.00;99.90;;;;;;5094439;28;20361;-83
2022/07/11 05:17:16;;;;;;;0.93;0.50;;;18.00;99.90;;;;;;5094291;28;20484;-83
2022/07/11 05:19:41;;;;;;;0.80;0.45;;;18.00;99.90;;;;;;5094097;28;20438;-82
2022/07/11 05:22:07;;;;;;;2.03;0.60;;;18.00;99.90;;;;;;5094153;28;20115;-82
2022/07/11 05:24:33;;;;;;;0.63;0.47;;;18.00;99.90;;;;;;5092884;28;20134;-82
2022/07/11 05:26:59;;;;;;;1.58;0.90;;;18.00;99.90;;;;;;5092810;28;20403;-82
2022/07/11 05:29:24;;;;;;;1.45;0.70;;;18.00;99.90;;;;;;5094010;28;20117;-82
2022/07/11 05:31:50;;;;;;;1.52;0.70;;;18.00;99.90;;;;;;5094010;28;20112;-82
2022/07/11 05:34:20;;;;;;;1.17;0.63;;;18.00;99.90;;;;;;5092720;28;20047;-82
2022/07/11 05:36:46;;;;;;;2.13;0.60;;;18.00;99.90;;;;;;5093522;28;20476;-82
2022/07/11 05:39:12;;;;;;;1.25;0.68;;;18.00;99.90;;;;;;5093885;28;20388;-82
2022/07/11 05:41:37;;;;;;;1.73;0.50;;;18.00;99.90;;;;;;5093975;28;20028;-82
2022/07/11 05:44:03;;;;;;;1.45;0.63;;;18.00;99.90;;;;;;5093890;28;20487;-83
2022/07/11 05:46:29;;;;;;;1.35;0.65;;;18.00;99.90;;;;;;5093498;28;20118;-83
2022/07/11 05:48:55;;;;;;;1.73;0.60;;;18.00;99.90;;;;;;5093635;28;20115;-83
2022/07/11 05:51:20;;;;;;;2.72;0.70;;;18.00;99.90;;;;;;5093500;28;20016;-83
2022/07/11 05:53:46;;;;;;;1.77;0.55;;;18.00;99.90;;;;;;5093104;28;20024;-83
2022/07/11 05:56:12;;;;;;;2.25;0.70;;;18.00;99.90;;;;;;5093514;28;20388;-83
2022/07/11 05:58:38;;;;;;;3.08;1.27;;;18.00;99.90;;;;;;5093422;28;20472;-83
2022/07/11 06:01:03;;;;;;;4.03;1.90;;;18.00;99.90;;;;;;5093527;28;20111;-83
2022/07/11 06:03:29;;;;;;;4.30;1.27;;;18.00;99.90;;;;;;5093496;28;20266;-83
2022/07/11 06:05:55;;;;;;;2.33;1.30;;;18.00;99.90;;;;;;5092875;28;20424;-82
2022/07/11 06:11:05;;;;;;;4.30;1.20;;;18.00;99.90;;;;;;5093299;28;20070;-83
2022/07/11 06:13:31;;;;;;;2.13;1.08;;;18.00;99.90;;;;;;5093294;28;20849;-83
2022/07/11 06:15:57;;;;;;;2.05;1.10;;;17.90;99.90;;;;;;5092935;28;20118;-82
2022/07/11 06:18:23;;;;;;;3.58;1.17;;;17.90;99.90;;;;;;5093137;28;20028;-83
2022/07/11 06:20:49;;;;;;;3.22;1.27;;;17.90;99.90;;;;;;5093301;28;20032;-82
2022/07/11 06:23:15;;;;;;;3.05;1.23;;;17.90;99.90;;;;;;5093123;28;20112;-82
2022/07/11 06:25:40;;;;;;;5.15;1.38;;;18.00;99.90;;;;;;5092801;28;20066;-82
2022/07/11 06:28:06;;;;;;;9.15;1.33;;;17.90;99.90;;;;;;5092932;28;20115;-82
2022/07/11 06:30:33;;;;;;;5.90;1.05;;;17.90;99.90;;;;;;5092798;28;20023;-83
2022/07/11 06:32:59;;;;;;;2.65;0.85;;;17.90;99.90;;;;;;5091717;28;20024;-82
2022/07/11 06:35:24;;;;;;;3.35;0.95;;;17.90;99.90;;;;;;5092722;28;20257;-82
2022/07/11 06:37:50;;;;;;;2.83;0.82;;;17.90;99.90;;;;;;5092815;28;20043;-82
2022/07/11 06:40:17;;;;;;;2.25;0.90;;;17.90;99.90;;;;;;5092580;28;20024;-82
2022/07/11 06:42:43;;;;;;;3.65;1.40;;;17.90;99.90;;;;;;5092834;28;20422;-83
2022/07/11 06:45:10;;;;;;;3.53;1.00;;;17.90;99.90;;;;;;5092600;28;20401;-83
2022/07/11 06:47:35;;;;;;;2.33;0.90;;;17.90;99.90;;;;;;5090980;28;20449;-82
2022/07/11 06:50:02;;;;;;;2.40;0.90;;;17.90;99.90;;;;;;5091011;28;20070;-80
2022/07/11 06:52:27;;;;;;;4.05;1.10;;;17.90;99.90;;;;;;5092090;28;20365;-81
2022/07/11 06:54:53;;;;;;;4.15;1.50;;;17.90;99.90;;;;;;5092089;28;20024;-84
2022/07/11 06:57:19;;;;;;;4.28;1.55;;;17.80;99.90;;;;;;5092219;28;20048;-83
2022/07/11 06:59:45;;;;;;;3.20;1.30;;;17.70;99.90;;;;;;5092696;28;20032;-82
2022/07/11 07:02:10;;;;;;;3.17;1.45;;;17.70;99.90;;;;;;5092237;28;20031;-83
2022/07/11 07:04:36;;;;;;;4.95;1.90;;;17.70;99.90;;;;;;5091995;28;20184;-83
2022/07/11 07:07:02;;;;;;;4.30;1.23;;;17.70;99.90;;;;;;5090926;28;20027;-81
2022/07/11 07:09:28;;;;;;;3.42;1.27;;;17.80;99.90;;;;;;5091293;28;20028;-78
2022/07/11 07:11:55;;;;;;;2.60;1.58;;;17.90;99.90;;;;;;5090324;28;20036;-78
2022/07/11 07:14:21;;;;;;;2.75;1.85;;;17.90;99.90;;;;;;5091344;28;20137;-78
2022/07/11 07:16:47;;;;;;;4.65;1.67;;;17.90;99.90;;;;;;5092145;28;20139;-78
2022/07/11 07:19:13;;;;;;;3.42;1.55;;;17.90;99.90;;;;;;5092256;28;20111;-78
2022/07/11 07:21:39;;;;;;;3.05;1.30;;;17.90;99.90;;;;;;5092189;28;20035;-78
2022/07/11 07:24:05;;;;;;;4.57;1.17;;;17.90;99.90;;;;;;5092078;28;20081;-78
2022/07/11 07:26:31;;;;;;;2.30;1.20;;;17.90;99.90;;;;;;5091850;28;20396;-78
2022/07/11 07:28:57;;;;;;;4.75;1.27;;;17.90;99.90;;;;;;5092073;28;20495;-78
2022/07/11 07:31:23;;;;;;;3.67;2.22;;;17.90;99.90;;;;;;5092416;28;20032;-78
2022/07/11 07:33:49;;;;;;;2.53;1.92;;;17.90;99.90;;;;;;5092002;28;20060;-78
2022/07/11 07:36:15;;;;;;;5.70;2.15;;;17.90;99.90;;;;;;5092179;28;20027;-78
2022/07/11 07:38:46;;;;;;;5.35;2.00;;;17.90;99.90;;;;;;5094332;28;20040;-78
2022/07/11 07:41:13;;;;;;;4.07;2.40;;;17.90;99.90;;;;;;5090956;28;20324;-78
2022/07/11 07:43:39;;;;;;;3.90;2.42;;;17.90;99.90;;;;;;5091827;28;20034;-78
2022/07/11 07:46:05;;;;;;;5.80;2.60;;;17.90;99.90;;;;;;5091541;28;20032;-78
2022/07/11 07:48:30;;;;;;;5.82;3.65;;;17.90;99.90;;;;;;5091603;28;20534;-78
2022/07/11 07:50:56;;;;;;;8.85;4.32;;;18.00;99.90;;;;;;5091633;28;20135;-78
2022/07/11 07:53:22;;;;;;;7.85;4.95;;;18.10;99.90;;;;;;5092039;28;20035;-78
2022/07/11 07:55:49;;;;;;;9.50;5.55;;;18.10;99.90;;;;;;5091738;28;20460;-78
2022/07/11 07:58:15;;;;;;;8.82;4.82;;;18.20;99.90;;;;;;5091484;28;20500;-78
2022/07/11 08:03:24;;;;;;;8.73;5.20;;;18.20;99.90;;;;;;5091443;28;20036;-78
2022/07/11 08:05:50;;;;;;;6.47;4.85;;;18.30;99.90;;;;;;5090987;28;20365;-78
2022/07/11 08:08:16;;;;;;;7.53;5.18;;;18.30;99.90;;;;;;5091475;28;20080;-78
2022/07/11 08:10:42;;;;;;;5.28;4.43;;;18.20;99.90;;;;;;5091558;28;20035;-78
2022/07/11 08:13:07;;;;;;;10.02;4.70;;;18.20;99.90;;;;;;5091329;28;20472;-78
2022/07/11 08:15:34;;;;;;;7.82;4.50;;;18.30;99.90;;;;;;5091299;28;20028;-78
2022/07/11 08:17:59;;;;;;;9.00;3.50;;;18.30;99.90;;;;;;5090890;28;20024;-78
2022/07/11 08:20:25;;;;;;;4.47;2.85;;;18.30;99.90;;;;;;5091142;28;20055;-78
2022/07/11 08:22:51;;;;;;;5.13;2.40;;;18.30;99.90;;;;;;5091527;28;20028;-78
2022/07/11 08:25:16;;;;;;;4.10;2.40;;;18.20;99.90;;;;;;5090625;28;20089;-78
2022/07/11 08:27:42;;;;;;;4.78;2.20;;;18.30;99.90;;;;;;5091067;28;20387;-78
2022/07/11 08:30:09;;;;;;;4.57;1.90;;;18.30;99.90;;;;;;5091122;28;20020;-78
2022/07/11 08:32:39;;;;;;;2.80;1.95;;;18.30;99.90;;;;;;5090963;28;20024;-78
2022/07/11 08:35:05;;;;;;;3.63;1.80;;;18.30;99.90;;;;;;5090968;28;20296;-78
2022/07/11 08:37:31;;;;;;;3.58;1.98;;;18.40;99.90;;;;;;5090892;28;20039;-78
2022/07/11 08:39:56;;;;;;;4.38;1.60;;;18.40;99.90;;;;;;5090819;28;20032;-76
2022/07/11 08:42:26;;;;;;;4.18;1.52;;;18.40;99.90;;;;;;5091509;28;20051;-76
2022/07/11 08:44:52;;;;;;;2.80;1.10;;;18.40;99.90;;;;;;5091657;28;20028;-78
2022/07/11 08:47:19;;;;;;;2.67;1.30;;;18.40;99.90;;;;;;5103302;28;20024;-77
2022/07/11 08:49:45;;;;;;;2.80;1.35;;;18.40;99.90;;;;;;5099846;28;20059;-78
2022/07/11 08:52:12;;;;;;;2.78;1.80;;;18.40;99.90;;;;;;5091083;28;20055;-77
2022/07/11 08:54:38;;;;;;;4.47;1.42;;;18.40;99.90;;;;;;5090805;28;20024;-77
2022/07/11 08:57:05;;;;;;;2.40;1.30;;;18.40;99.90;;;;;;5090840;28;20275;-78
2022/07/11 08:59:35;;;;;;;4.68;1.42;;;18.40;99.90;;;;;;5090733;28;20035;-78
2022/07/11 09:02:03;;;;;;;2.55;1.27;;;18.40;99.90;;;;;;5090849;28;20077;-77
2022/07/11 09:04:30;;;;;;;1.98;1.33;;;18.50;99.90;;;;;;5090837;28;20051;-77
2022/07/11 09:06:56;;;;;;;2.80;1.10;;;18.50;99.90;;;;;;5090418;28;20130;-78
2022/07/11 09:09:21;;;;;;;3.50;1.30;;;18.60;99.90;;;;;;5090584;28;20123;-78
2022/07/11 09:11:57;;;;;;;7.72;2.17;;;18.60;99.90;;;;;;5090757;28;20434;-79
2022/07/11 09:14:24;;;;;;;4.80;2.08;;;18.70;99.90;;;;;;5090846;28;20116;-79
2022/07/11 09:16:55;;;;;;;3.03;1.77;;;18.70;99.90;;;;;;5090471;28;20372;-78
2022/07/11 09:19:26;;;;;;;3.53;1.90;;;18.80;99.90;;;;;;5090532;28;20127;-85
2022/07/11 09:27:47;;;;;;;8.10;4.70;;;18.80;99.90;;;;;;5090456;28;20042;-79
2022/07/11 09:30:21;;;;;;;7.57;3.88;;;18.80;99.90;;;;;;5091703;28;20032;-80
2022/07/11 09:32:54;;;;;;;6.05;4.13;;;18.80;99.90;;;;;;5080441;28;20044;-83
2022/07/11 09:35:24;;;;;;;9.15;3.63;;;18.80;99.90;;;;;;5073606;28;20392;-83
2022/07/11 09:37:50;;;;;;;5.82;4.00;;;18.80;99.90;;;;;;5072977;28;20078;-83
2022/07/11 09:40:17;;;;;;;7.60;3.47;;;18.80;99.90;;;;;;5073331;28;20024;-83
2022/07/11 09:42:57;;;;;;;5.40;2.55;;;18.80;99.90;;;;;;5075729;28;20063;-82
2022/07/11 09:45:24;;;;;;;5.07;2.22;;;18.80;99.90;;;;;;5073410;28;20464;-83
2022/07/11 09:47:55;;;;;;;4.28;1.80;;;18.80;99.90;;;;;;5072948;28;20024;-82
2022/07/11 09:50:23;;;;;;;2.65;1.63;;;18.80;99.90;;;;;;5073688;28;20024;-84
2022/07/11 09:53:18;;;;;;;4.55;1.90;;;18.80;99.90;;;;;;5070744;28;20092;-82
2022/07/11 09:55:48;;;;;;;3.03;1.80;;;18.80;99.90;;;;;;5053919;28;20087;-82
2022/07/11 09:58:15;;;;;;;5.30;2.03;;;18.80;99.90;;;;;;5071722;28;20150;-79
2022/07/11 10:00:43;;;;;;;4.28;1.98;;;18.90;99.90;;;;;;5070733;28;20059;-79
2022/07/11 10:03:11;;;;;;;5.63;2.13;;;18.80;99.90;;;;;;5069781;28;20035;-79
2022/07/11 10:05:38;;;;;;;6.03;2.60;;;18.90;99.90;;;;;;5069594;28;20029;-79
2022/07/11 10:08:04;;;;;;;4.18;1.73;;;18.90;99.90;;;;;;5070676;28;20099;-79
2022/07/11 10:10:32;;;;;;;4.50;2.00;;;18.90;99.90;;;;;;5070062;28;20021;-79
2022/07/11 10:12:59;;;;;;;4.55;1.92;;;18.90;99.90;;;;;;5071393;28;20056;-78
2022/07/11 10:15:28;;;;;;;4.97;1.92;;;18.90;99.90;;;;;;5071309;28;20031;-79
2022/07/11 10:18:03;;;;;;;2.63;1.75;;;18.90;99.90;;;;;;5072813;28;20016;-79
2022/07/11 10:20:47;;;;;;;3.28;2.80;;;18.90;99.90;;;;;;5072831;28;20479;-79
2022/07/11 10:23:27;;;;;;;5.03;2.97;;;18.90;99.90;;;;;;5073290;28;20067;-78
2022/07/11 10:26:00;;;;;;;4.70;3.00;;;18.90;99.90;;;;;;5071286;28;20455;-79
2022/07/11 10:28:47;;;;;;;7.05;3.17;;;19.00;99.90;;;;;;5072665;28;20035;-79
2022/07/11 10:31:25;;;;;;;6.50;2.92;;;19.10;99.90;;;;;;5072810;28;20450;-78
2022/07/11 10:34:04;;;;;;;4.22;2.90;;;19.10;99.90;;;;;;5072644;28;20040;-79
2022/07/11 10:36:41;;;;;;;4.93;2.90;;;19.10;99.90;;;;;;5072340;28;20127;-79
2022/07/11 10:39:29;;;;;;;3.60;3.30;;;19.20;99.90;;;;;;5072363;28;20087;-79
2022/07/11 10:42:00;;;;;;;6.65;4.00;;;19.20;99.90;;;;;;5072646;28;20465;-79
2022/07/11 10:44:28;;;;;;;4.95;3.72;;;19.30;99.90;;;;;;5072316;28;20056;-79
2022/07/11 10:46:54;;;;;;;4.00;2.87;;;19.30;99.90;;;;;;5072192;28;20389;-79
2022/07/11 10:49:47;;;;;;;2.42;1.80;;;19.30;99.90;;;;;;5072546;28;20480;-78
2022/07/11 10:52:22;;;;;;;4.30;2.30;;;19.40;99.90;;;;;;5072488;28;20040;-77
2022/07/11 10:54:56;;;;;;;3.67;2.80;;;19.40;99.90;;;;;;5072199;28;20461;-79
2022/07/11 10:57:24;;;;;;;3.72;2.00;;;19.30;99.90;;;;;;5071943;28;20067;-79
2022/07/11 11:00:03;;;;;;;4.32;1.75;;;19.30;99.90;;;;;;5071816;28;20116;-79
2022/07/11 11:02:30;;;;;;;2.95;1.60;;;19.30;99.90;;;;;;5072307;28;20392;-79
2022/07/11 11:05:00;;;;;;;4.40;2.08;;;19.30;99.90;;;;;;5072020;28;20054;-78
2022/07/11 11:07:44;;;;;;;4.18;2.95;;;19.30;99.90;;;;;;5071707;28;20043;-79
2022/07/11 11:10:38;;;;;;;4.90;2.83;;;19.30;99.90;;;;;;5071654;28;20028;-79
2022/07/11 11:13:09;;;;;;;4.45;2.88;;;19.30;99.90;;;;;;5071865;28;20078;-79
2022/07/11 11:15:52;;;;;;;4.53;3.53;;;19.30;99.90;;;;;;5071660;28;20382;-79
2022/07/11 11:18:24;;;;;;;5.13;3.97;;;19.30;99.90;;;;;;5071626;28;20495;-79
2022/07/11 11:21:01;;;;;;;5.53;3.38;;;19.30;99.90;;;;;;5071869;28;20431;-79
2022/07/11 11:23:31;;;;;;;3.85;2.38;;;19.30;99.90;;;;;;5071566;28;20554;-79
2022/07/11 11:26:12;;;;;;;3.15;2.35;;;19.30;99.90;;;;;;5071241;28;20041;-79
2022/07/11 11:28:54;;;;;;;3.45;2.50;;;19.30;99.90;;;;;;5071301;28;20170;-79
2022/07/11 11:31:20;;;;;;;4.57;2.45;;;19.40;99.90;;;;;;5071429;28;20029;-79
2022/07/11 11:33:47;;;;;;;3.88;2.58;;;19.40;99.90;;;;;;5071480;28;20435;-79
2022/07/11 11:36:17;;;;;;;4.65;3.05;;;19.40;99.90;;;;;;5071411;28;20036;-79
2022/07/11 11:38:44;;;;;;;3.85;2.70;;;19.40;99.90;;;;;;5071315;28;20032;-79
2022/07/11 11:41:12;;;;;;;3.40;2.65;;;19.40;99.90;;;;;;5071294;28;20032;-79
2022/07/11 11:43:44;;;;;;;3.95;2.70;;;19.40;99.90;;;;;;5071428;28;20060;-79
2022/07/11 11:46:12;;;;;;;4.07;2.50;;;19.40;99.90;;;;;;5070838;28;20120;-78
2022/07/11 11:48:38;;;;;;;6.70;2.70;;;19.50;99.90;;;;;;5070987;28;20035;-79
2022/07/11 11:51:04;;;;;;;4.35;2.70;;;19.50;99.90;;;;;;5070939;28;20035;-79
2022/07/11 11:53:50;;;;;;;4.85;2.50;;;19.40;99.90;;;;;;5070805;28;20412;-79
2022/07/11 11:56:30;;;;;;;4.65;2.92;;;19.50;99.90;;;;;;5070908;28;20093;-79
2022/07/11 11:59:03;;;;;;;4.75;2.70;;;19.50;99.90;;;;;;5070741;28;20033;-79
2022/07/11 12:01:38;;;;;;;3.55;2.17;;;19.50;99.90;;;;;;5070836;28;20056;-79
2022/07/11 12:04:07;;;;;;;3.90;2.05;;;19.50;99.90;;;;;;5070907;28;20431;-79
2022/07/11 12:06:40;;;;;;;5.07;2.30;;;19.50;99.90;;;;;;5070569;28;20039;-79
2022/07/11 12:09:11;;;;;;;6.95;2.33;;;19.50;99.90;;;;;;5070917;28;20036;-79
2022/07/11 12:11:39;;;;;;;6.47;2.22;;;19.50;99.90;;;;;;5070949;28;20489;-79
2022/07/11 12:14:07;;;;;;;4.15;2.17;;;19.50;99.90;;;;;;5070823;28;20029;-79
2022/07/11 12:16:44;;;;;;;3.30;1.95;;;19.60;99.90;;;;;;5070442;28;20056;-79
2022/07/11 12:19:11;;;;;;;2.50;1.70;;;19.60;99.90;;;;;;5070582;28;20192;-79
2022/07/11 12:21:38;;;;;;;5.47;2.20;;;19.60;99.90;;;;;;5070599;28;20029;-79
2022/07/11 12:24:06;;;;;;;2.95;2.30;;;19.70;99.90;;;;;;5069601;28;20029;-79
2022/07/11 12:26:34;;;;;;;4.57;2.80;;;19.80;99.90;;;;;;5070361;28;20055;-79
2022/07/11 12:29:07;;;;;;;4.93;3.78;;;19.80;99.90;;;;;;5070348;28;20032;-79
2022/07/11 12:31:56;;;;;;;5.72;5.00;;;19.90;99.90;;;;;;5070826;28;20074;-79
2022/07/11 12:34:22;;;;;;;;;;;20.00;99.90;;;;;;5071030;28;20388;-79
2022/07/11 12:36:49;;;;;;;6.88;4.88;;;19.90;99.90;;;;;;5070297;28;19920;-79
2022/07/11 12:39:25;;;;;;;5.55;4.90;;;19.90;99.90;;;;;;5069322;28;20044;-79
2022/07/11 12:41:52;;;;;;;5.95;4.45;;;19.90;99.90;;;;;;5070424;28;20499;-79
2022/07/11 12:47:23;;;;;;;4.20;3.03;;;19.90;99.90;;;;;;5070242;28;20416;-79
2022/07/11 12:49:48;;;;;;;6.00;3.17;;;19.90;99.90;;;;;;5070182;28;20051;-79
2022/07/11 12:52:15;;;;;;;5.07;2.78;;;19.90;99.90;;;;;;5070811;28;20457;-79
2022/07/11 12:54:41;;;;;;;4.85;2.70;;;19.90;99.90;;;;;;5070351;28;20028;-79
2022/07/11 12:57:08;;;;;;;4.07;2.60;;;19.90;99.90;;;;;;5070161;28;20035;-79
2022/07/11 12:59:35;;;;;;;5.97;4.07;;;19.90;99.90;;;;;;5070611;28;20109;-79
2022/07/11 13:02:04;;;;;;;5.57;3.65;;;19.90;99.90;;;;;;5070264;28;20032;-79
2022/07/11 13:04:35;;;;;;;4.25;3.53;;;19.90;99.90;;;;;;5071857;28;20086;-79
2022/07/11 13:10:06;;;;;;;5.20;2.92;;;19.90;99.90;;;;;;5074051;28;20127;-79